createdAt,value
2022-10-18T00:00:20.619Z,68.15
2022-10-18T00:02:47.753Z,67.95
2022-10-18T00:05:15.128Z,68.26
2022-10-18T00:07:42.026Z,68.93
2022-10-18T00:10:09.514Z,67.81
2022-10-18T00:12:37.851Z,68.52
2022-10-18T00:15:06.725Z,67.79
2022-10-18T00:17:38.448Z,67.89
2022-10-18T00:20:07.100Z,67.35
2022-10-18T00:22:37.238Z,67.91
2022-10-18T00:25:05.320Z,67.60
2022-10-18T00:28:02.478Z,67.87
2022-10-18T00:30:29.437Z,67.26
2022-10-18T00:32:56.428Z,67.10
2022-10-18T00:35:23.711Z,67.00
2022-10-18T00:37:50.732Z,66.58
2022-10-18T00:40:17.831Z,66.08
2022-10-18T00:42:44.878Z,66.27
2022-10-18T00:45:17.315Z,66.49
2022-10-18T00:47:48.480Z,66.25
2022-10-18T00:50:20.145Z,65.91
2022-10-18T00:52:51.723Z,65.99
2022-10-18T00:55:19.283Z,65.61
2022-10-18T00:57:47.174Z,65.23
2022-10-18T01:00:15.097Z,65.59
2022-10-18T01:02:43.784Z,65.50
2022-10-18T01:05:13.887Z,65.53
2022-10-18T01:07:46.777Z,66.19
2022-10-18T01:10:42.731Z,65.80
2022-10-18T01:13:34.316Z,65.59
2022-10-18T01:16:21.327Z,65.64
2022-10-18T01:19:12.067Z,66.76
2022-10-18T01:22:00.549Z,65.97
2022-10-18T01:27:51.055Z,66.37
2022-10-18T01:30:56.423Z,66.55
2022-10-18T01:33:26.984Z,66.20
2022-10-18T01:36:09.920Z,66.26
2022-10-18T01:38:38.986Z,66.99
2022-10-18T01:41:11.748Z,66.78
2022-10-18T01:43:43.956Z,66.18
2022-10-18T01:46:14.715Z,66.53
2022-10-18T01:48:41.878Z,66.46
2022-10-18T01:51:09.135Z,66.42
2022-10-18T01:53:36.635Z,65.92
2022-10-18T01:56:27.961Z,65.99
2022-10-18T01:59:05.220Z,65.80
2022-10-18T02:01:58.399Z,66.12
2022-10-18T02:04:32.400Z,66.13
2022-10-18T02:07:09.829Z,66.20
2022-10-18T02:09:50.976Z,65.93
2022-10-18T02:12:19.427Z,65.83
2022-10-18T02:14:48.541Z,66.16
2022-10-18T02:17:17.379Z,65.73
2022-10-18T02:19:52.333Z,64.90
2022-10-18T02:22:20.234Z,65.62
2022-10-18T02:24:54.232Z,65.60
2022-10-18T02:27:22.145Z,64.99
2022-10-18T02:29:49.742Z,64.87
2022-10-18T02:32:25.703Z,65.20
2022-10-18T02:35:09.335Z,65.34
2022-10-18T02:37:40.340Z,65.16
2022-10-18T02:40:10.324Z,65.00
2022-10-18T02:42:47.970Z,64.45
2022-10-18T02:45:16.763Z,65.17
2022-10-18T02:47:43.913Z,64.91
2022-10-18T02:50:11.238Z,65.27
2022-10-18T02:52:38.280Z,65.16
2022-10-18T02:55:06.566Z,64.90
2022-10-18T02:57:34.056Z,65.05
2022-10-18T03:00:01.407Z,65.01
2022-10-18T03:02:30.839Z,65.44
2022-10-18T03:04:57.927Z,64.68
2022-10-18T03:07:24.924Z,64.98
2022-10-18T03:09:51.953Z,64.98
2022-10-18T03:12:18.911Z,65.37
2022-10-18T03:14:45.846Z,65.07
2022-10-18T03:17:12.983Z,65.47
2022-10-18T03:19:40.153Z,65.32
2022-10-18T03:22:07.319Z,65.77
2022-10-18T03:24:34.308Z,65.78
2022-10-18T03:27:01.250Z,65.68
2022-10-18T03:29:28.799Z,65.09
2022-10-18T03:31:55.776Z,65.53
2022-10-18T03:34:22.659Z,65.18
2022-10-18T03:36:49.595Z,65.38
2022-10-18T03:39:18.667Z,65.21
2022-10-18T03:41:45.668Z,65.11
2022-10-18T03:44:12.817Z,65.36
2022-10-18T03:46:39.658Z,65.95
2022-10-18T03:49:06.496Z,66.27
2022-10-18T03:51:33.458Z,65.92
2022-10-18T03:54:00.515Z,66.47
2022-10-18T03:56:27.562Z,66.03
2022-10-18T03:58:54.679Z,66.21
2022-10-18T04:01:21.801Z,65.80
2022-10-18T04:03:48.808Z,65.37
2022-10-18T04:06:15.834Z,66.57
2022-10-18T04:08:42.808Z,65.67
2022-10-18T04:11:10.999Z,65.70
2022-10-18T04:13:38.043Z,66.05
2022-10-18T04:16:07.395Z,65.82
2022-10-18T04:18:34.397Z,65.83
2022-10-18T04:21:01.353Z,65.45
2022-10-18T04:23:28.472Z,65.40
2022-10-18T04:25:55.507Z,65.37
2022-10-18T04:28:22.417Z,65.12
2022-10-18T04:30:53.400Z,65.48
2022-10-18T04:33:20.818Z,65.27
2022-10-18T04:35:51.075Z,65.47
2022-10-18T04:38:18.468Z,65.81
2022-10-18T04:40:45.519Z,65.88
2022-10-18T04:43:12.774Z,65.86
2022-10-18T04:45:39.867Z,65.79
2022-10-18T04:48:07.106Z,64.92
2022-10-18T04:50:34.082Z,65.26
2022-10-18T04:53:01.082Z,65.64
2022-10-18T04:55:28.081Z,65.10
2022-10-18T04:57:55.158Z,65.54
2022-10-18T05:00:22.135Z,65.12
2022-10-18T05:02:49.451Z,64.69
2022-10-18T05:05:16.702Z,65.33
2022-10-18T05:07:46.774Z,65.40
2022-10-18T05:10:13.935Z,64.98
2022-10-18T05:12:40.936Z,64.47
2022-10-18T05:15:08.322Z,64.29
2022-10-18T05:17:35.675Z,64.60
2022-10-18T05:20:05.106Z,65.14
2022-10-18T05:22:32.394Z,64.98
2022-10-18T05:24:59.673Z,65.25
2022-10-18T05:27:26.612Z,65.47
2022-10-18T05:29:53.485Z,65.09
2022-10-18T05:32:20.663Z,65.12
2022-10-18T05:34:47.556Z,65.60
2022-10-18T05:37:14.789Z,64.77
2022-10-18T05:39:41.843Z,65.10
2022-10-18T05:42:09.006Z,64.69
2022-10-18T05:44:39.103Z,65.26
2022-10-18T05:47:06.130Z,65.96
2022-10-18T05:49:33.192Z,65.91
2022-10-18T05:52:00.168Z,66.45
2022-10-18T05:54:27.105Z,66.34
2022-10-18T05:56:53.977Z,66.16
2022-10-18T05:59:20.974Z,66.68
2022-10-18T06:01:47.970Z,65.24
2022-10-18T06:04:14.942Z,66.12
2022-10-18T06:06:42.021Z,66.16
2022-10-18T06:09:09.225Z,66.15
2022-10-18T06:11:37.301Z,66.31
2022-10-18T06:14:05.284Z,66.43
2022-10-18T06:16:32.857Z,65.86
2022-10-18T06:19:00.388Z,66.29
2022-10-18T06:21:27.720Z,66.02
2022-10-18T06:23:57.166Z,66.32
2022-10-18T06:26:24.852Z,66.02
2022-10-18T06:28:51.991Z,66.39
2022-10-18T06:31:19.254Z,66.22
2022-10-18T06:33:46.250Z,66.82
2022-10-18T06:36:15.892Z,67.31
2022-10-18T06:38:43.410Z,67.91
2022-10-18T06:41:11.127Z,67.95
2022-10-18T06:43:38.123Z,68.78
2022-10-18T06:46:08.205Z,68.89
2022-10-18T06:53:08.645Z,68.31
2022-10-18T06:55:36.041Z,68.58
2022-10-18T06:58:03.184Z,69.05
2022-10-18T07:00:30.265Z,68.65
2022-10-18T07:02:58.165Z,69.12
2022-10-18T07:05:25.601Z,68.68
2022-10-18T07:07:56.345Z,69.96
2022-10-18T07:10:24.584Z,69.35
2022-10-18T07:12:59.180Z,69.84
2022-10-18T07:15:38.635Z,69.12
2022-10-18T07:18:05.884Z,69.52
2022-10-18T07:20:32.940Z,69.85
2022-10-18T07:22:59.875Z,69.23
2022-10-18T07:25:28.504Z,70.44
2022-10-18T07:27:57.492Z,68.54
2022-10-18T07:30:24.459Z,69.27
2022-10-18T07:32:52.032Z,69.18
2022-10-18T07:35:19.080Z,69.07
2022-10-18T07:37:45.952Z,69.23
2022-10-18T07:40:13.307Z,70.24
2022-10-18T07:42:40.341Z,69.76
2022-10-18T07:45:07.717Z,69.89
2022-10-18T07:47:35.366Z,70.61
2022-10-18T07:50:02.495Z,69.63
2022-10-18T07:52:30.093Z,69.49
2022-10-18T07:54:57.250Z,70.45
2022-10-18T07:57:24.291Z,70.37
2022-10-18T07:59:56.503Z,70.55
2022-10-18T08:02:26.107Z,70.25
2022-10-18T08:04:53.120Z,70.67
2022-10-18T08:07:20.225Z,70.38
2022-10-18T08:09:47.400Z,70.25
2022-10-18T08:12:15.728Z,70.98
2022-10-18T08:14:42.838Z,70.54
2022-10-18T08:17:09.931Z,70.00
2022-10-18T08:19:36.847Z,71.19
2022-10-18T08:22:03.822Z,70.76
2022-10-18T08:24:31.055Z,71.90
2022-10-18T08:26:58.143Z,72.42
2022-10-18T08:29:29.184Z,72.40
2022-10-18T08:31:57.972Z,72.09
2022-10-18T08:34:25.201Z,71.71
2022-10-18T08:36:52.216Z,73.16
2022-10-18T08:39:19.149Z,74.32
2022-10-18T08:42:04.370Z,75.02
2022-10-18T08:44:33.083Z,75.18
2022-10-18T08:47:06.839Z,75.55
2022-10-18T08:49:47.179Z,75.81
2022-10-18T08:52:45.129Z,76.78
2022-10-18T08:55:38.574Z,77.27
2022-10-18T08:58:26.852Z,76.67
2022-10-18T09:00:56.956Z,76.92
2022-10-18T09:03:36.570Z,77.66
2022-10-18T09:06:10.234Z,77.44
2022-10-18T09:08:58.471Z,77.96
2022-10-18T09:11:40.437Z,76.81
2022-10-18T09:14:07.347Z,76.09
2022-10-18T09:16:49.552Z,76.19
2022-10-18T09:19:19.485Z,76.53
2022-10-18T09:21:55.200Z,75.77
2022-10-18T09:24:40.350Z,75.67
2022-10-18T09:27:18.756Z,75.89
2022-10-18T09:30:15.122Z,75.36
2022-10-18T09:33:00.431Z,76.38
2022-10-18T09:35:57.633Z,75.50
2022-10-18T09:39:00.456Z,74.29
2022-10-18T09:41:38.076Z,74.52
2022-10-18T09:44:26.000Z,74.86
2022-10-18T09:47:14.583Z,74.81
2022-10-18T09:49:51.416Z,74.42
2022-10-18T09:52:27.819Z,75.16
2022-10-18T09:55:02.591Z,75.10
2022-10-18T09:57:39.607Z,74.35
2022-10-18T10:00:17.177Z,74.27
2022-10-18T10:02:44.417Z,74.75
2022-10-18T10:05:15.887Z,75.30
2022-10-18T10:07:46.094Z,75.54
2022-10-18T10:10:29.041Z,75.44
2022-10-18T10:13:23.263Z,75.78
2022-10-18T10:16:00.641Z,75.81
2022-10-18T10:18:30.431Z,76.44
2022-10-18T10:21:00.439Z,75.77
2022-10-18T10:23:31.325Z,76.03
2022-10-18T10:26:02.310Z,76.04
2022-10-18T10:28:34.590Z,75.98
2022-10-18T10:31:30.866Z,76.10
2022-10-18T10:34:01.834Z,76.39
2022-10-18T10:36:30.148Z,76.10
2022-10-18T10:39:19.177Z,76.13
2022-10-18T10:42:01.047Z,76.20
2022-10-18T10:44:36.499Z,76.15
2022-10-18T10:47:04.586Z,76.21
2022-10-18T10:49:52.045Z,76.20
2022-10-18T10:52:28.428Z,76.76
2022-10-18T10:55:06.189Z,76.84
2022-10-18T10:57:40.003Z,77.20
2022-10-18T11:00:07.891Z,76.72
2022-10-18T11:02:37.018Z,76.92
2022-10-18T11:05:26.570Z,77.06
2022-10-18T11:08:04.399Z,76.92
2022-10-18T11:10:39.474Z,77.38
2022-10-18T11:13:49.946Z,77.22
2022-10-18T11:16:32.577Z,77.14
2022-10-18T11:19:03.379Z,77.78
2022-10-18T11:21:32.778Z,77.34
2022-10-18T11:24:03.286Z,77.50
2022-10-18T11:26:33.956Z,77.63
2022-10-18T11:29:37.713Z,77.61
2022-10-18T11:32:19.811Z,77.40
2022-10-18T11:34:52.927Z,76.97
2022-10-18T11:37:29.969Z,77.05
2022-10-18T11:40:03.884Z,77.17
2022-10-18T11:42:49.665Z,76.97
2022-10-18T11:45:25.804Z,77.11
2022-10-18T11:47:56.530Z,76.77
2022-10-18T11:50:43.631Z,77.29
2022-10-18T11:53:19.659Z,77.03
2022-10-18T11:56:28.163Z,76.58
2022-10-18T11:59:22.447Z,77.29
2022-10-18T12:01:49.246Z,76.92
2022-10-18T12:04:23.739Z,76.73
2022-10-18T12:06:56.721Z,77.15
2022-10-18T12:09:32.686Z,77.23
2022-10-18T12:12:02.659Z,77.14
2022-10-18T12:14:35.832Z,77.20
2022-10-18T12:17:39.843Z,76.25
2022-10-18T12:19:57.720Z,76.15
2022-10-18T12:22:49.619Z,76.10
2022-10-18T12:25:19.222Z,76.22
2022-10-18T12:28:16.564Z,76.29
2022-10-18T12:30:52.084Z,76.63
2022-10-18T12:33:28.191Z,76.90
2022-10-18T12:36:33.254Z,76.77
2022-10-18T12:39:07.070Z,76.84
2022-10-18T12:41:37.767Z,77.00
2022-10-18T12:44:15.731Z,77.15
2022-10-18T12:46:46.784Z,77.03
2022-10-18T12:49:17.750Z,77.38
2022-10-18T12:51:57.224Z,76.79
2022-10-18T12:54:29.399Z,77.21
2022-10-18T12:56:57.978Z,77.17
2022-10-18T12:59:28.310Z,77.34
2022-10-18T13:01:57.946Z,77.15
2022-10-18T13:04:27.955Z,76.81
2022-10-18T13:07:00.775Z,76.49
2022-10-18T13:09:30.318Z,76.38
2022-10-18T13:12:09.749Z,76.17
2022-10-18T13:14:48.228Z,76.30
2022-10-18T13:17:41.331Z,76.35
2022-10-18T13:20:59.452Z,76.15
2022-10-18T13:23:55.958Z,76.21
2022-10-18T13:26:37.112Z,75.84
2022-10-18T13:29:13.079Z,75.91
2022-10-18T13:31:49.831Z,76.20
2022-10-18T13:37:07.268Z,75.53
2022-10-18T13:39:38.115Z,75.17
2022-10-18T13:42:14.289Z,75.18
2022-10-18T13:44:43.792Z,75.10
2022-10-18T13:47:32.239Z,74.80
2022-10-18T13:50:07.214Z,74.47
2022-10-18T13:52:43.338Z,74.91
2022-10-18T13:55:13.080Z,74.61
2022-10-18T13:57:47.901Z,74.57
2022-10-18T14:03:55.480Z,74.46
2022-10-18T14:06:25.416Z,73.97
2022-10-18T14:09:06.348Z,74.08
2022-10-18T14:11:46.455Z,73.74
2022-10-18T14:14:23.360Z,74.17
2022-10-18T14:20:36.909Z,74.04
2022-10-18T14:23:38.170Z,73.49
2022-10-18T14:26:12.023Z,72.50
2022-10-18T14:28:58.631Z,73.04
2022-10-18T14:31:26.139Z,73.03
2022-10-18T14:33:57.940Z,73.03
2022-10-18T14:36:29.771Z,73.35
2022-10-18T14:38:58.116Z,72.65
2022-10-18T14:41:25.196Z,72.46
2022-10-18T14:43:54.940Z,72.98
2022-10-18T14:46:30.036Z,72.39
2022-10-18T14:49:05.144Z,72.45
2022-10-18T14:51:36.533Z,72.12
2022-10-18T14:54:04.970Z,72.48
2022-10-18T14:56:45.976Z,71.53
2022-10-18T14:59:24.345Z,71.67
2022-10-18T15:02:22.532Z,71.25
2022-10-18T15:05:14.620Z,71.37
2022-10-18T15:07:58.190Z,70.59
2022-10-18T15:10:38.325Z,70.67
2022-10-18T15:13:49.403Z,71.17
2022-10-18T15:16:35.205Z,71.07
2022-10-18T15:19:42.881Z,70.87
2022-10-18T15:22:33.067Z,70.69
2022-10-18T15:25:46.057Z,69.60
2022-10-18T15:28:54.083Z,69.97
2022-10-18T15:31:40.461Z,69.63
2022-10-18T15:34:12.012Z,69.07
2022-10-18T15:36:40.717Z,68.68
2022-10-18T15:39:14.248Z,68.67
2022-10-18T15:41:52.983Z,68.27
2022-10-18T15:44:28.757Z,68.64
2022-10-18T15:47:34.207Z,69.26
2022-10-18T15:50:05.310Z,68.23
2022-10-18T15:52:40.922Z,68.08
2022-10-18T15:55:30.557Z,68.21
2022-10-18T15:58:12.266Z,67.54
2022-10-18T16:00:41.422Z,67.49
2022-10-18T16:03:14.135Z,67.66
2022-10-18T16:05:45.666Z,67.96
2022-10-18T16:08:26.692Z,67.22
2022-10-18T16:10:54.794Z,68.00
2022-10-18T16:13:21.837Z,67.17
2022-10-18T16:15:49.442Z,67.74
2022-10-18T16:18:19.686Z,67.69
2022-10-18T16:20:52.673Z,66.82
2022-10-18T16:24:04.383Z,66.08
2022-10-18T16:26:32.271Z,66.49
2022-10-18T16:28:59.979Z,66.41
2022-10-18T16:31:30.440Z,66.51
2022-10-18T16:33:58.214Z,67.15
2022-10-18T16:36:29.132Z,66.92
2022-10-18T16:39:01.371Z,66.27
2022-10-18T16:41:28.876Z,65.93
2022-10-18T16:43:55.842Z,66.25
2022-10-18T16:46:27.566Z,65.37
2022-10-18T16:48:59.358Z,65.68
2022-10-18T16:51:32.854Z,64.89
2022-10-18T16:54:07.227Z,65.11
2022-10-18T16:56:34.345Z,64.68
2022-10-18T16:59:02.145Z,64.64
2022-10-18T17:01:29.189Z,65.37
2022-10-18T17:03:59.101Z,64.43
2022-10-18T17:06:33.081Z,64.12
2022-10-18T17:09:00.099Z,64.02
2022-10-18T17:11:28.462Z,64.67
2022-10-18T17:13:56.016Z,62.93
2022-10-18T17:16:34.388Z,63.80
2022-10-18T17:19:04.737Z,64.13
2022-10-18T17:25:14.979Z,63.23
2022-10-18T17:28:20.901Z,63.77
2022-10-18T17:33:45.587Z,63.39
2022-10-18T17:36:14.818Z,62.23
2022-10-18T17:39:31.583Z,63.01
2022-10-18T17:47:26.256Z,61.75
2022-10-18T17:50:43.559Z,62.23
2022-10-18T17:53:56.736Z,63.19
2022-10-18T17:56:31.241Z,62.59
2022-10-18T17:58:59.715Z,63.24
2022-10-18T18:01:26.934Z,62.95
2022-10-18T18:03:58.640Z,63.04
2022-10-18T18:06:31.534Z,63.09
2022-10-18T18:09:00.276Z,62.91
2022-10-18T18:11:27.815Z,63.47
2022-10-18T18:13:56.632Z,63.54
2022-10-18T18:16:26.480Z,63.36
2022-10-18T18:18:56.416Z,63.15
2022-10-18T18:21:25.000Z,64.08
2022-10-18T18:23:52.777Z,63.31
2022-10-18T18:26:21.296Z,64.49
2022-10-18T18:28:48.841Z,63.59
2022-10-18T18:31:25.462Z,63.95
2022-10-18T18:33:54.942Z,63.79
2022-10-18T18:36:25.535Z,64.73
2022-10-18T18:38:56.907Z,64.15
2022-10-18T18:41:26.481Z,64.41
2022-10-18T18:43:59.003Z,64.88
2022-10-18T18:46:33.330Z,64.96
2022-10-18T18:49:00.784Z,65.08
2022-10-18T18:51:28.092Z,65.20
2022-10-18T18:53:55.231Z,66.08
2022-10-18T18:56:24.996Z,66.00
2022-10-18T18:58:53.040Z,66.56
2022-10-18T19:01:23.863Z,66.25
2022-10-18T19:03:53.217Z,67.06
2022-10-18T19:06:23.467Z,66.69
2022-10-18T19:08:55.594Z,67.03
2022-10-18T19:11:23.093Z,66.93
2022-10-18T19:13:50.347Z,66.97
2022-10-18T19:16:19.371Z,66.99
2022-10-18T19:18:54.910Z,66.78
2022-10-18T19:21:25.523Z,66.68
2022-10-18T19:23:52.886Z,67.11
2022-10-18T19:26:25.720Z,66.84
2022-10-18T19:28:56.003Z,66.27
2022-10-18T19:31:23.242Z,66.00
2022-10-18T19:33:59.288Z,65.98
2022-10-18T19:36:28.333Z,65.88
2022-10-18T19:38:55.362Z,66.37
2022-10-18T19:43:56.775Z,64.99
2022-10-18T19:46:27.428Z,64.79
2022-10-18T19:48:54.696Z,65.28
2022-10-18T20:43:30.175Z,62.02
2022-10-18T20:45:58.858Z,62.30
2022-10-18T20:48:26.818Z,62.85
2022-10-18T20:50:53.751Z,63.55
2022-10-18T20:53:22.312Z,62.53
2022-10-18T20:55:50.172Z,62.98
2022-10-18T20:58:17.423Z,61.72
2022-10-18T21:00:44.308Z,61.79
2022-10-18T21:05:39.119Z,62.46
2022-10-18T21:08:06.043Z,61.72
2022-10-18T21:10:34.185Z,61.95
2022-10-18T21:13:01.252Z,62.00
2022-10-18T21:15:28.313Z,62.90
2022-10-18T21:17:55.329Z,62.22
2022-10-18T21:20:22.318Z,61.60
2022-10-18T21:22:51.922Z,61.98
2022-10-18T21:25:19.034Z,61.74
2022-10-18T21:27:46.051Z,62.15
2022-10-18T21:32:45.147Z,61.00
2022-10-18T21:35:12.333Z,61.58
2022-10-18T21:37:39.434Z,62.26
2022-10-18T21:40:08.565Z,62.04
2022-10-18T21:42:35.669Z,62.06
2022-10-18T21:45:03.089Z,61.97
2022-10-18T21:47:30.155Z,62.14
2022-10-18T21:49:58.048Z,61.49
2022-10-18T21:52:27.100Z,62.08
2022-10-18T21:54:54.108Z,61.94
2022-10-18T21:57:21.146Z,62.32
2022-10-18T21:59:48.034Z,62.31
2022-10-18T22:02:15.391Z,61.96
2022-10-18T22:04:42.387Z,62.07
2022-10-18T22:07:09.527Z,61.97
2022-10-18T22:09:36.496Z,62.41
2022-10-18T22:12:03.902Z,61.89
2022-10-18T22:14:31.042Z,62.04
2022-10-18T22:16:58.078Z,62.40
2022-10-18T22:19:25.064Z,62.63
2022-10-18T22:21:52.092Z,61.81
2022-10-18T22:24:19.249Z,62.67
2022-10-18T22:26:46.912Z,62.31
2022-10-18T22:29:19.532Z,62.25
2022-10-18T22:31:49.909Z,62.24
2022-10-18T22:34:22.497Z,62.43
2022-10-18T22:36:49.972Z,62.52
2022-10-18T22:39:17.518Z,62.14
2022-10-18T22:41:44.918Z,62.50
2022-10-18T22:44:13.221Z,62.92
2022-10-18T22:46:41.561Z,61.87
2022-10-18T22:49:08.690Z,62.02
2022-10-18T22:54:07.552Z,62.59
2022-10-18T22:56:35.087Z,62.54
2022-10-18T22:59:02.126Z,61.99
2022-10-18T23:01:29.713Z,61.76
2022-10-18T23:03:58.742Z,61.35
2022-10-18T23:06:36.379Z,61.22
2022-10-18T23:09:06.819Z,61.64
2022-10-18T23:11:34.831Z,62.30
2022-10-18T23:14:03.862Z,62.40
2022-10-18T23:16:31.481Z,61.84
2022-10-18T23:18:59.549Z,62.60
2022-10-18T23:21:28.238Z,61.84
2022-10-18T23:23:56.233Z,62.13
2022-10-18T23:26:26.246Z,61.65
2022-10-18T23:28:54.765Z,61.48
2022-10-18T23:31:30.695Z,61.15
2022-10-18T23:34:01.259Z,60.87
2022-10-18T23:36:28.783Z,60.54
2022-10-18T23:38:56.394Z,60.30
2022-10-18T23:41:23.743Z,60.63
2022-10-18T23:43:51.100Z,61.46
2022-10-18T23:46:18.607Z,60.54
2022-10-18T23:48:46.350Z,61.08
2022-10-18T23:51:13.962Z,60.99
2022-10-18T23:53:40.970Z,61.35
2022-10-18T23:56:13.840Z,60.82
2022-10-18T23:58:41.502Z,60.49
